sensor_id;sensor_type;location;lat;lon;timestamp;pressure;altitude;pressure_sealevel;temperature;humidity
79366;BME280;68833;53.160;17.920;2024-01-25T00:01:27;99822.40;;;5.64;84.79
79366;BME280;68833;53.160;17.920;2024-01-25T00:03:54;99829.55;;;5.61;84.91
79366;BME280;68833;53.160;17.920;2024-01-25T00:06:20;99831.11;;;5.60;84.66
79366;BME280;68833;53.160;17.920;2024-01-25T00:08:47;99836.18;;;5.58;84.83
79366;BME280;68833;53.160;17.920;2024-01-25T00:11:14;99834.09;;;5.57;85.07
79366;BME280;68833;53.160;17.920;2024-01-25T00:13:40;99839.48;;;5.56;84.98
79366;BME280;68833;53.160;17.920;2024-01-25T00:16:07;99838.27;;;5.54;85.36
79366;BME280;68833;53.160;17.920;2024-01-25T00:18:33;99841.40;;;5.54;84.63
79366;BME280;68833;53.160;17.920;2024-01-25T00:20:59;99841.23;;;5.53;85.01
79366;BME280;68833;53.160;17.920;2024-01-25T00:23:26;99838.80;;;5.54;85.19
79366;BME280;68833;53.160;17.920;2024-01-25T00:25:53;99845.77;;;5.53;84.80
79366;BME280;68833;53.160;17.920;2024-01-25T00:28:19;99839.67;;;5.51;85.16
79366;BME280;68833;53.160;17.920;2024-01-25T00:30:48;99841.77;;;5.48;85.06
79366;BME280;68833;53.160;17.920;2024-01-25T00:33:15;99840.90;;;5.48;84.95
79366;BME280;68833;53.160;17.920;2024-01-25T00:35:42;99842.81;;;5.48;85.54
79366;BME280;68833;53.160;17.920;2024-01-25T00:38:09;99842.47;;;5.48;85.41
79366;BME280;68833;53.160;17.920;2024-01-25T00:40:36;99848.41;;;5.47;85.37
79366;BME280;68833;53.160;17.920;2024-01-25T00:43:04;99845.77;;;5.45;85.38
79366;BME280;68833;53.160;17.920;2024-01-25T00:45:31;99844.41;;;5.42;85.32
79366;BME280;68833;53.160;17.920;2024-01-25T00:47:59;99842.48;;;5.43;85.73
79366;BME280;68833;53.160;17.920;2024-01-25T00:50:26;99843.70;;;5.42;85.01
79366;BME280;68833;53.160;17.920;2024-01-25T00:52:59;99846.31;;;5.42;85.13
79366;BME280;68833;53.160;17.920;2024-01-25T00:55:26;99844.23;;;5.41;84.98
79366;BME280;68833;53.160;17.920;2024-01-25T01:05:29;99833.60;;;5.43;85.14
79366;BME280;68833;53.160;17.920;2024-01-25T01:07:56;99834.98;;;5.42;84.76
79366;BME280;68833;53.160;17.920;2024-01-25T01:10:23;99838.65;;;5.42;85.03
79366;BME280;68833;53.160;17.920;2024-01-25T01:12:50;99836.91;;;5.40;84.75
79366;BME280;68833;53.160;17.920;2024-01-25T01:15:20;99841.27;;;5.39;84.66
79366;BME280;68833;53.160;17.920;2024-01-25T01:17:47;99838.31;;;5.40;84.43
79366;BME280;68833;53.160;17.920;2024-01-25T01:20:14;99847.69;;;5.41;84.48
79366;BME280;68833;53.160;17.920;2024-01-25T01:22:41;99845.96;;;5.41;84.60
79366;BME280;68833;53.160;17.920;2024-01-25T01:25:08;99848.23;;;5.40;84.87
79366;BME280;68833;53.160;17.920;2024-01-25T01:27:37;99847.54;;;5.39;84.44
79366;BME280;68833;53.160;17.920;2024-01-25T01:30:04;99850.33;;;5.39;84.53
79366;BME280;68833;53.160;17.920;2024-01-25T01:32:33;99849.27;;;5.39;84.21
79366;BME280;68833;53.160;17.920;2024-01-25T01:35:00;99852.23;;;5.38;84.63
79366;BME280;68833;53.160;17.920;2024-01-25T01:37:27;99848.92;;;5.38;84.21
79366;BME280;68833;53.160;17.920;2024-01-25T01:39:54;99851.89;;;5.36;84.33
79366;BME280;68833;53.160;17.920;2024-01-25T01:42:22;99851.55;;;5.36;84.29
79366;BME280;68833;53.160;17.920;2024-01-25T01:44:50;99844.41;;;5.37;84.34
79366;BME280;68833;53.160;17.920;2024-01-25T01:47:19;99840.05;;;5.38;84.43
79366;BME280;68833;53.160;17.920;2024-01-25T01:49:48;99841.45;;;5.37;84.32
79366;BME280;68833;53.160;17.920;2024-01-25T01:52:16;99840.23;;;5.37;84.37
79366;BME280;68833;53.160;17.920;2024-01-25T01:54:45;99842.14;;;5.35;84.37
79366;BME280;68833;53.160;17.920;2024-01-25T01:57:13;99840.06;;;5.33;84.31
79366;BME280;68833;53.160;17.920;2024-01-25T01:59:40;99843.38;;;5.32;83.99
79366;BME280;68833;53.160;17.920;2024-01-25T02:10:31;99845.80;;;5.23;84.35
79366;BME280;68833;53.160;17.920;2024-01-25T02:12:59;99843.55;;;5.22;84.17
79366;BME280;68833;53.160;17.920;2024-01-25T02:15:26;99844.95;;;5.21;83.84
79366;BME280;68833;53.160;17.920;2024-01-25T02:17:53;99838.68;;;5.20;84.13
79366;BME280;68833;53.160;17.920;2024-01-25T02:20:20;99836.23;;;5.19;83.93
79366;BME280;68833;53.160;17.920;2024-01-25T02:22:47;99843.91;;;5.17;84.24
79366;BME280;68833;53.160;17.920;2024-01-25T02:25:15;99839.38;;;5.17;84.07
79366;BME280;68833;53.160;17.920;2024-01-25T02:27:42;99837.29;;;5.16;84.31
79366;BME280;68833;53.160;17.920;2024-01-25T02:30:09;99838.52;;;5.16;84.22
79366;BME280;68833;53.160;17.920;2024-01-25T02:32:36;99839.56;;;5.15;84.02
79366;BME280;68833;53.160;17.920;2024-01-25T02:35:03;99843.39;;;5.14;84.11
79366;BME280;68833;53.160;17.920;2024-01-25T02:37:31;99846.52;;;5.14;83.70
79366;BME280;68833;53.160;17.920;2024-01-25T02:39:59;99849.64;;;5.15;83.75
79366;BME280;68833;53.160;17.920;2024-01-25T02:42:27;99852.79;;;5.14;84.07
79366;BME280;68833;53.160;17.920;2024-01-25T02:44:54;99842.86;;;5.13;84.20
79366;BME280;68833;53.160;17.920;2024-01-25T02:47:22;99849.65;;;5.10;83.89
79366;BME280;68833;53.160;17.920;2024-01-25T02:49:49;99846.87;;;5.11;84.22
79366;BME280;68833;53.160;17.920;2024-01-25T02:52:16;99848.61;;;5.12;84.05
79366;BME280;68833;53.160;17.920;2024-01-25T02:54:43;99848.95;;;5.11;84.10
79366;BME280;68833;53.160;17.920;2024-01-25T02:57:10;99851.56;;;5.11;83.87
79366;BME280;68833;53.160;17.920;2024-01-25T02:59:37;99844.78;;;5.10;84.57
79366;BME280;68833;53.160;17.920;2024-01-25T03:02:04;99845.98;;;5.07;84.13
79366;BME280;68833;53.160;17.920;2024-01-25T03:04:31;99845.30;;;5.08;84.36
79366;BME280;68833;53.160;17.920;2024-01-25T03:06:58;99844.61;;;5.08;84.63
79366;BME280;68833;53.160;17.920;2024-01-25T03:09:25;99844.60;;;5.08;84.54
79366;BME280;68833;53.160;17.920;2024-01-25T03:11:52;99847.74;;;5.08;84.91
79366;BME280;68833;53.160;17.920;2024-01-25T03:14:19;99851.73;;;5.06;84.79
79366;BME280;68833;53.160;17.920;2024-01-25T03:16:46;99855.91;;;5.04;84.40
79366;BME280;68833;53.160;17.920;2024-01-25T03:19:13;99859.92;;;5.04;84.49
79366;BME280;68833;53.160;17.920;2024-01-25T03:21:40;99865.31;;;5.03;84.38
79366;BME280;68833;53.160;17.920;2024-01-25T03:24:07;99866.18;;;5.04;84.72
79366;BME280;68833;53.160;17.920;2024-01-25T03:26:34;99871.59;;;5.04;85.23
79366;BME280;68833;53.160;17.920;2024-01-25T03:29:01;99866.89;;;5.01;84.97
79366;BME280;68833;53.160;17.920;2024-01-25T03:31:28;99877.85;;;5.01;84.88
79366;BME280;68833;53.160;17.920;2024-01-25T03:33:55;99879.95;;;5.02;85.14
79366;BME280;68833;53.160;17.920;2024-01-25T03:36:22;99882.38;;;5.01;84.95
79366;BME280;68833;53.160;17.920;2024-01-25T03:38:49;99882.20;;;5.00;85.58
79366;BME280;68833;53.160;17.920;2024-01-25T03:41:16;99885.86;;;4.99;85.13
79366;BME280;68833;53.160;17.920;2024-01-25T03:43:43;99888.98;;;4.97;85.23
79366;BME280;68833;53.160;17.920;2024-01-25T03:46:12;99890.38;;;4.96;85.47
79366;BME280;68833;53.160;17.920;2024-01-25T03:48:39;99891.94;;;4.96;85.51
79366;BME280;68833;53.160;17.920;2024-01-25T03:51:06;99893.68;;;4.95;86.00
79366;BME280;68833;53.160;17.920;2024-01-25T03:53:33;99895.95;;;4.96;85.41
79366;BME280;68833;53.160;17.920;2024-01-25T03:56:00;99898.20;;;4.95;85.64
79366;BME280;68833;53.160;17.920;2024-01-25T03:58:28;99897.50;;;4.94;85.74
79366;BME280;68833;53.160;17.920;2024-01-25T04:00:56;99904.12;;;4.92;85.98
79366;BME280;68833;53.160;17.920;2024-01-25T04:03:23;99908.11;;;4.90;85.59
79366;BME280;68833;53.160;17.920;2024-01-25T04:05:50;99904.98;;;4.88;85.46
79366;BME280;68833;53.160;17.920;2024-01-25T04:08:18;99899.41;;;4.86;85.56
79366;BME280;68833;53.160;17.920;2024-01-25T04:10:45;99900.80;;;4.87;85.48
79366;BME280;68833;53.160;17.920;2024-01-25T04:13:12;99895.41;;;4.86;85.61
79366;BME280;68833;53.160;17.920;2024-01-25T04:15:39;99895.76;;;4.84;86.01
79366;BME280;68833;53.160;17.920;2024-01-25T04:18:06;99897.14;;;4.83;85.98
79366;BME280;68833;53.160;17.920;2024-01-25T04:20:34;99892.97;;;4.82;86.04
79366;BME280;68833;53.160;17.920;2024-01-25T04:23:02;99895.75;;;4.83;85.90
79366;BME280;68833;53.160;17.920;2024-01-25T04:25:30;99895.92;;;4.82;86.35
79366;BME280;68833;53.160;17.920;2024-01-25T04:27:57;99900.96;;;4.81;86.04
79366;BME280;68833;53.160;17.920;2024-01-25T04:30:25;99910.37;;;4.80;85.91
79366;BME280;68833;53.160;17.920;2024-01-25T04:32:52;99913.33;;;4.79;86.03
79366;BME280;68833;53.160;17.920;2024-01-25T04:35:18;99918.20;;;4.80;86.58
79366;BME280;68833;53.160;17.920;2024-01-25T04:37:45;99918.72;;;4.81;86.11
79366;BME280;68833;53.160;17.920;2024-01-25T04:40:13;99923.77;;;4.82;86.36
79366;BME280;68833;53.160;17.920;2024-01-25T04:42:40;99925.32;;;4.81;85.92
79366;BME280;68833;53.160;17.920;2024-01-25T04:45:07;99928.29;;;4.80;86.20
79366;BME280;68833;53.160;17.920;2024-01-25T04:47:38;99930.37;;;4.81;86.19
79366;BME280;68833;53.160;17.920;2024-01-25T04:50:06;99937.32;;;4.81;86.32
79366;BME280;68833;53.160;17.920;2024-01-25T04:52:34;99936.81;;;4.84;86.35
79366;BME280;68833;53.160;17.920;2024-01-25T04:55:01;99940.47;;;4.85;86.45
79366;BME280;68833;53.160;17.920;2024-01-25T04:57:28;99940.29;;;4.84;86.47
79366;BME280;68833;53.160;17.920;2024-01-25T04:59:55;99942.73;;;4.83;86.35
79366;BME280;68833;53.160;17.920;2024-01-25T05:02:22;99945.00;;;4.85;86.11
79366;BME280;68833;53.160;17.920;2024-01-25T05:04:50;99951.79;;;4.87;86.11
79366;BME280;68833;53.160;17.920;2024-01-25T05:07:17;99953.01;;;4.87;86.13
79366;BME280;68833;53.160;17.920;2024-01-25T05:09:45;99953.86;;;4.87;86.14
79366;BME280;68833;53.160;17.920;2024-01-25T05:12:13;99952.64;;;4.86;86.50
79366;BME280;68833;53.160;17.920;2024-01-25T05:14:40;99955.08;;;4.85;86.53
79366;BME280;68833;53.160;17.920;2024-01-25T05:17:07;99956.30;;;4.86;86.43
79366;BME280;68833;53.160;17.920;2024-01-25T05:19:36;99954.57;;;4.86;86.75
79366;BME280;68833;53.160;17.920;2024-01-25T05:22:06;99958.23;;;4.88;86.60
79366;BME280;68833;53.160;17.920;2024-01-25T05:24:34;99965.72;;;4.89;86.49
79366;BME280;68833;53.160;17.920;2024-01-25T05:27:02;99963.98;;;4.87;86.20
79366;BME280;68833;53.160;17.920;2024-01-25T05:29:29;99965.18;;;4.87;86.79
79366;BME280;68833;53.160;17.920;2024-01-25T05:31:57;99967.97;;;4.88;86.80
79366;BME280;68833;53.160;17.920;2024-01-25T05:34:24;99966.06;;;4.87;86.69
79366;BME280;68833;53.160;17.920;2024-01-25T05:36:52;99965.02;;;4.88;86.44
79366;BME280;68833;53.160;17.920;2024-01-25T05:39:19;99974.58;;;4.88;86.76
79366;BME280;68833;53.160;17.920;2024-01-25T05:41:46;99980.49;;;4.88;87.01
79366;BME280;68833;53.160;17.920;2024-01-25T05:44:14;99982.94;;;4.87;86.60
79366;BME280;68833;53.160;17.920;2024-01-25T05:46:41;99979.63;;;4.89;86.76
79366;BME280;68833;53.160;17.920;2024-01-25T05:49:08;99982.06;;;4.89;87.10
79366;BME280;68833;53.160;17.920;2024-01-25T05:51:35;99983.29;;;4.90;86.94
79366;BME280;68833;53.160;17.920;2024-01-25T05:54:02;99983.29;;;4.91;87.02
79366;BME280;68833;53.160;17.920;2024-01-25T05:56:30;99987.80;;;4.90;87.19
79366;BME280;68833;53.160;17.920;2024-01-25T05:58:57;99992.16;;;4.90;87.46
79366;BME280;68833;53.160;17.920;2024-01-25T06:01:24;99986.24;;;4.91;86.94
79366;BME280;68833;53.160;17.920;2024-01-25T06:03:51;99980.33;;;4.90;86.68
79366;BME280;68833;53.160;17.920;2024-01-25T06:06:18;99983.81;;;4.92;86.97
79366;BME280;68833;53.160;17.920;2024-01-25T06:08:45;99992.70;;;4.93;87.35
79366;BME280;68833;53.160;17.920;2024-01-25T06:11:12;99998.77;;;4.90;87.06
79366;BME280;68833;53.160;17.920;2024-01-25T06:13:39;100001.04;;;4.91;86.75
79366;BME280;68833;53.160;17.920;2024-01-25T06:16:06;100009.73;;;4.92;86.77
79366;BME280;68833;53.160;17.920;2024-01-25T06:18:33;100019.14;;;4.93;86.82
79366;BME280;68833;53.160;17.920;2024-01-25T06:21:00;100021.40;;;4.94;86.71
79366;BME280;68833;53.160;17.920;2024-01-25T06:23:27;100022.45;;;4.95;86.72
79366;BME280;68833;53.160;17.920;2024-01-25T06:25:55;100030.80;;;4.94;86.95
79366;BME280;68833;53.160;17.920;2024-01-25T06:28:22;100030.11;;;4.94;87.15
79366;BME280;68833;53.160;17.920;2024-01-25T06:30:49;100031.68;;;4.96;86.63
79366;BME280;68833;53.160;17.920;2024-01-25T06:33:16;100029.25;;;4.96;86.78
79366;BME280;68833;53.160;17.920;2024-01-25T06:35:43;100027.85;;;4.97;86.94
79366;BME280;68833;53.160;17.920;2024-01-25T06:38:10;100028.20;;;4.97;86.84
79366;BME280;68833;53.160;17.920;2024-01-25T06:40:38;100028.55;;;4.96;86.70
79366;BME280;68833;53.160;17.920;2024-01-25T06:43:05;100024.35;;;4.94;86.38
79366;BME280;68833;53.160;17.920;2024-01-25T06:45:32;100024.18;;;4.95;86.73
79366;BME280;68833;53.160;17.920;2024-01-25T06:47:59;100023.16;;;4.95;86.82
79366;BME280;68833;53.160;17.920;2024-01-25T06:50:26;100024.37;;;4.97;86.56
79366;BME280;68833;53.160;17.920;2024-01-25T06:52:53;100033.77;;;4.96;86.17
79366;BME280;68833;53.160;17.920;2024-01-25T06:55:22;100041.08;;;4.95;86.66
79366;BME280;68833;53.160;17.920;2024-01-25T06:57:49;100050.46;;;4.94;86.79
79366;BME280;68833;53.160;17.920;2024-01-25T07:00:16;100058.99;;;4.95;86.79
79366;BME280;68833;53.160;17.920;2024-01-25T07:02:43;100069.10;;;4.96;86.51
79366;BME280;68833;53.160;17.920;2024-01-25T07:05:11;100076.41;;;4.98;86.43
79366;BME280;68833;53.160;17.920;2024-01-25T07:07:38;100083.88;;;4.98;86.49
79366;BME280;68833;53.160;17.920;2024-01-25T07:10:06;100084.77;;;4.97;86.62
79366;BME280;68833;53.160;17.920;2024-01-25T07:12:34;100092.77;;;4.98;86.28
79366;BME280;68833;53.160;17.920;2024-01-25T07:15:01;100096.60;;;5.00;86.26
79366;BME280;68833;53.160;17.920;2024-01-25T07:17:28;100103.23;;;5.01;86.44
79366;BME280;68833;53.160;17.920;2024-01-25T07:19:55;100102.88;;;5.01;86.63
79366;BME280;68833;53.160;17.920;2024-01-25T07:22:22;100104.45;;;5.02;86.73
79366;BME280;68833;53.160;17.920;2024-01-25T07:24:49;100100.63;;;5.00;86.34
79366;BME280;68833;53.160;17.920;2024-01-25T07:27:16;100114.01;;;5.01;86.66
79366;BME280;68833;53.160;17.920;2024-01-25T07:29:44;100117.33;;;5.01;86.48
79366;BME280;68833;53.160;17.920;2024-01-25T07:32:14;100124.11;;;5.01;86.94
79366;BME280;68833;53.160;17.920;2024-01-25T07:34:41;100133.86;;;5.01;86.21
79366;BME280;68833;53.160;17.920;2024-01-25T07:37:08;100136.11;;;5.00;86.58
79366;BME280;68833;53.160;17.920;2024-01-25T07:39:37;100145.52;;;5.01;86.44
79366;BME280;68833;53.160;17.920;2024-01-25T07:42:04;100157.02;;;5.02;86.49
79366;BME280;68833;53.160;17.920;2024-01-25T07:44:32;100154.91;;;5.03;86.81
79366;BME280;68833;53.160;17.920;2024-01-25T07:46:59;100167.45;;;5.04;86.84
79366;BME280;68833;53.160;17.920;2024-01-25T07:49:26;100171.80;;;5.04;86.31
79366;BME280;68833;53.160;17.920;2024-01-25T07:51:52;100175.83;;;5.05;86.51
79366;BME280;68833;53.160;17.920;2024-01-25T07:54:19;100179.63;;;5.04;86.22
79366;BME280;68833;53.160;17.920;2024-01-25T07:56:46;100183.65;;;5.03;86.46
79366;BME280;68833;53.160;17.920;2024-01-25T07:59:14;100187.30;;;5.03;86.28
79366;BME280;68833;53.160;17.920;2024-01-25T08:01:41;100189.21;;;5.03;86.27
79366;BME280;68833;53.160;17.920;2024-01-25T08:04:08;100194.26;;;5.04;86.08
79366;BME280;68833;53.160;17.920;2024-01-25T08:06:35;100192.01;;;5.03;85.59
79366;BME280;68833;53.160;17.920;2024-01-25T08:09:02;100189.38;;;5.01;86.01
79366;BME280;68833;53.160;17.920;2024-01-25T08:11:29;100201.92;;;5.03;85.95
79366;BME280;68833;53.160;17.920;2024-01-25T08:13:56;100206.63;;;5.04;85.64
79366;BME280;68833;53.160;17.920;2024-01-25T08:16:24;100209.77;;;5.04;85.89
79366;BME280;68833;53.160;17.920;2024-01-25T08:18:51;100214.13;;;5.06;85.77
79366;BME280;68833;53.160;17.920;2024-01-25T08:21:19;100224.56;;;5.08;85.45
79366;BME280;68833;53.160;17.920;2024-01-25T08:23:46;100223.88;;;5.08;85.72
79366;BME280;68833;53.160;17.920;2024-01-25T08:26:13;100230.30;;;5.07;85.12
79366;BME280;68833;53.160;17.920;2024-01-25T08:28:40;100232.41;;;5.08;85.34
79366;BME280;68833;53.160;17.920;2024-01-25T08:31:10;100237.12;;;5.10;85.61
79366;BME280;68833;53.160;17.920;2024-01-25T08:33:38;100244.61;;;5.11;85.22
79366;BME280;68833;53.160;17.920;2024-01-25T08:36:08;100246.70;;;5.12;85.51
79366;BME280;68833;53.160;17.920;2024-01-25T08:38:35;100255.58;;;5.12;84.59
79366;BME280;68833;53.160;17.920;2024-01-25T08:41:02;100250.70;;;5.11;84.62
79366;BME280;68833;53.160;17.920;2024-01-25T08:43:30;100262.19;;;5.11;84.93
79366;BME280;68833;53.160;17.920;2024-01-25T08:45:57;100270.02;;;5.13;84.73
79366;BME280;68833;53.160;17.920;2024-01-25T08:48:24;100267.60;;;5.13;84.87
79366;BME280;68833;53.160;17.920;2024-01-25T08:50:51;100274.40;;;5.15;84.66
79366;BME280;68833;53.160;17.920;2024-01-25T08:53:20;100285.20;;;5.15;84.99
79366;BME280;68833;53.160;17.920;2024-01-25T08:55:54;100287.45;;;5.15;84.92
79366;BME280;68833;53.160;17.920;2024-01-25T08:58:22;100290.07;;;5.15;84.85
79366;BME280;68833;53.160;17.920;2024-01-25T09:00:49;100301.05;;;5.17;84.77
79366;BME280;68833;53.160;17.920;2024-01-25T09:03:16;100304.89;;;5.18;84.84
79366;BME280;68833;53.160;17.920;2024-01-25T09:05:43;100314.81;;;5.19;84.82
79366;BME280;68833;53.160;17.920;2024-01-25T09:08:14;100319.52;;;5.19;84.32
79366;BME280;68833;53.160;17.920;2024-01-25T09:10:42;100325.77;;;5.18;84.81
79366;BME280;68833;53.160;17.920;2024-01-25T09:13:09;100332.40;;;5.17;84.33
79366;BME280;68833;53.160;17.920;2024-01-25T09:15:36;100332.21;;;5.18;84.42
79366;BME280;68833;53.160;17.920;2024-01-25T09:18:03;100335.54;;;5.19;84.63
79366;BME280;68833;53.160;17.920;2024-01-25T09:20:30;100338.34;;;5.21;84.33
79366;BME280;68833;53.160;17.920;2024-01-25T09:22:57;100340.61;;;5.22;84.04
79366;BME280;68833;53.160;17.920;2024-01-25T09:25:24;100338.70;;;5.22;84.13
79366;BME280;68833;53.160;17.920;2024-01-25T09:27:52;100347.56;;;5.21;84.38
79366;BME280;68833;53.160;17.920;2024-01-25T09:30:19;100351.40;;;5.21;84.06
79366;BME280;68833;53.160;17.920;2024-01-25T09:32:46;100358.19;;;5.22;84.19
79366;BME280;68833;53.160;17.920;2024-01-25T09:35:13;100360.11;;;5.22;84.19
79366;BME280;68833;53.160;17.920;2024-01-25T09:37:40;100365.33;;;5.22;83.88
79366;BME280;68833;53.160;17.920;2024-01-25T09:40:07;100364.80;;;5.21;84.20
79366;BME280;68833;53.160;17.920;2024-01-25T09:42:34;100373.69;;;5.24;84.18
79366;BME280;68833;53.160;17.920;2024-01-25T09:45:06;100375.10;;;5.24;83.75
79366;BME280;68833;53.160;17.920;2024-01-25T09:47:34;100376.33;;;5.26;83.87
79366;BME280;68833;53.160;17.920;2024-01-25T09:50:01;100381.74;;;5.27;83.77
79366;BME280;68833;53.160;17.920;2024-01-25T09:52:29;100382.97;;;5.28;83.74
79366;BME280;68833;53.160;17.920;2024-01-25T09:54:57;100388.52;;;5.29;83.67
79366;BME280;68833;53.160;17.920;2024-01-25T09:57:27;100391.51;;;5.28;83.84
79366;BME280;68833;53.160;17.920;2024-01-25T09:59:55;100396.35;;;5.28;83.42
79366;BME280;68833;53.160;17.920;2024-01-25T10:02:22;100404.73;;;5.29;83.60
79366;BME280;68833;53.160;17.920;2024-01-25T10:04:52;100410.65;;;5.30;83.40
79366;BME280;68833;53.160;17.920;2024-01-25T10:07:39;100413.30;;;5.32;83.35
79366;BME280;68833;53.160;17.920;2024-01-25T10:10:06;100417.29;;;5.31;83.43
79366;BME280;68833;53.160;17.920;2024-01-25T10:12:33;100421.66;;;5.32;83.48
79366;BME280;68833;53.160;17.920;2024-01-25T10:15:02;100425.14;;;5.33;83.26
79366;BME280;68833;53.160;17.920;2024-01-25T10:17:29;100427.95;;;5.35;83.55
79366;BME280;68833;53.160;17.920;2024-01-25T10:19:56;100428.29;;;5.35;83.18
79366;BME280;68833;53.160;17.920;2024-01-25T10:22:23;100428.09;;;5.33;83.08
79366;BME280;68833;53.160;17.920;2024-01-25T10:24:50;100432.82;;;5.35;83.86
79366;BME280;68833;53.160;17.920;2024-01-25T10:27:19;100436.14;;;5.36;83.75
79366;BME280;68833;53.160;17.920;2024-01-25T10:29:47;100439.27;;;5.35;83.15
79366;BME280;68833;53.160;17.920;2024-01-25T10:32:14;100442.55;;;5.32;83.45
79366;BME280;68833;53.160;17.920;2024-01-25T10:34:43;100446.02;;;5.31;83.16
79366;BME280;68833;53.160;17.920;2024-01-25T10:37:13;100449.50;;;5.31;82.94
79366;BME280;68833;53.160;17.920;2024-01-25T10:39:42;100451.77;;;5.33;83.30
79366;BME280;68833;53.160;17.920;2024-01-25T10:42:09;100455.63;;;5.34;82.78
79366;BME280;68833;53.160;17.920;2024-01-25T10:44:37;100455.62;;;5.34;83.18
79366;BME280;68833;53.160;17.920;2024-01-25T10:47:05;100454.58;;;5.33;83.11
79366;BME280;68833;53.160;17.920;2024-01-25T10:49:33;100454.92;;;5.33;82.81
79366;BME280;68833;53.160;17.920;2024-01-25T10:52:04;100454.55;;;5.32;82.71
79366;BME280;68833;53.160;17.920;2024-01-25T10:54:33;100459.65;;;5.35;83.12
79366;BME280;68833;53.160;17.920;2024-01-25T10:57:00;100459.65;;;5.36;82.96
79366;BME280;68833;53.160;17.920;2024-01-25T10:59:28;100462.79;;;5.36;82.85
79366;BME280;68833;53.160;17.920;2024-01-25T11:03:58;100456.88;;;5.38;82.83
79366;BME280;68833;53.160;17.920;2024-01-25T11:06:27;100457.91;;;5.38;82.77
79366;BME280;68833;53.160;17.920;2024-01-25T11:09:06;100455.84;;;5.39;83.05
79366;BME280;68833;53.160;17.920;2024-01-25T11:11:35;100461.81;;;5.44;82.91
79366;BME280;68833;53.160;17.920;2024-01-25T11:14:03;100469.65;;;5.45;82.50
79366;BME280;68833;53.160;17.920;2024-01-25T11:16:31;100468.42;;;5.44;82.88
79366;BME280;68833;53.160;17.920;2024-01-25T11:18:59;100478.52;;;5.42;82.47
79366;BME280;68833;53.160;17.920;2024-01-25T11:21:41;100480.96;;;5.43;82.75
79366;BME280;68833;53.160;17.920;2024-01-25T11:24:14;100487.93;;;5.43;82.44
79366;BME280;68833;53.160;17.920;2024-01-25T11:26:45;100492.45;;;5.43;82.48
79366;BME280;68833;53.160;17.920;2024-01-25T11:29:19;100495.42;;;5.45;82.62
79366;BME280;68833;53.160;17.920;2024-01-25T11:31:47;100500.30;;;5.45;82.58
79366;BME280;68833;53.160;17.920;2024-01-25T11:34:15;100502.22;;;5.45;82.47
79366;BME280;68833;53.160;17.920;2024-01-25T11:36:45;100505.69;;;5.43;82.40
79366;BME280;68833;53.160;17.920;2024-01-25T11:39:13;100509.70;;;5.44;82.51
79366;BME280;68833;53.160;17.920;2024-01-25T11:41:40;100514.76;;;5.44;82.15
79366;BME280;68833;53.160;17.920;2024-01-25T11:44:09;100518.41;;;5.44;82.52
79366;BME280;68833;53.160;17.920;2024-01-25T11:46:36;100527.99;;;5.45;82.90
79366;BME280;68833;53.160;17.920;2024-01-25T11:49:02;100531.64;;;5.45;82.38
79366;BME280;68833;53.160;17.920;2024-01-25T11:51:28;100537.91;;;5.43;82.45
79366;BME280;68833;53.160;17.920;2024-01-25T11:53:56;100544.34;;;5.42;82.38
79366;BME280;68833;53.160;17.920;2024-01-25T11:56:30;100548.52;;;5.41;82.77
79366;BME280;68833;53.160;17.920;2024-01-25T11:58:58;100559.84;;;5.39;82.17
79366;BME280;68833;53.160;17.920;2024-01-25T12:01:25;100564.34;;;5.39;82.88
79366;BME280;68833;53.160;17.920;2024-01-25T12:03:51;100565.21;;;5.39;82.57
79366;BME280;68833;53.160;17.920;2024-01-25T12:06:18;100567.98;;;5.38;82.86
79366;BME280;68833;53.160;17.920;2024-01-25T12:08:45;100566.76;;;5.36;83.15
79366;BME280;68833;53.160;17.920;2024-01-25T12:11:14;100572.15;;;5.35;83.23
79366;BME280;68833;53.160;17.920;2024-01-25T12:13:44;100579.12;;;5.35;83.08
79366;BME280;68833;53.160;17.920;2024-01-25T12:16:11;100586.08;;;5.36;82.61
79366;BME280;68833;53.160;17.920;2024-01-25T12:18:41;100591.48;;;5.36;83.24
79366;BME280;68833;53.160;17.920;2024-01-25T12:21:09;100592.00;;;5.35;83.01
79366;BME280;68833;53.160;17.920;2024-01-25T12:23:36;100594.41;;;5.33;83.16
79366;BME280;68833;53.160;17.920;2024-01-25T12:26:07;100602.06;;;5.32;82.88
79366;BME280;68833;53.160;17.920;2024-01-25T12:28:34;100603.27;;;5.31;83.11
79366;BME280;68833;53.160;17.920;2024-01-25T12:31:02;100607.13;;;5.32;82.89
79366;BME280;68833;53.160;17.920;2024-01-25T12:33:30;100609.91;;;5.32;83.32
79366;BME280;68833;53.160;17.920;2024-01-25T12:35:57;100609.91;;;5.32;83.82
79366;BME280;68833;53.160;17.920;2024-01-25T12:38:25;100617.56;;;5.32;83.34
79366;BME280;68833;53.160;17.920;2024-01-25T12:40:52;100617.02;;;5.31;83.80
79366;BME280;68833;53.160;17.920;2024-01-25T12:43:19;100618.75;;;5.29;83.51
79366;BME280;68833;53.160;17.920;2024-01-25T12:45:48;100623.98;;;5.30;83.66
79366;BME280;68833;53.160;17.920;2024-01-25T12:48:15;100633.24;;;5.32;83.47
79366;BME280;68833;53.160;17.920;2024-01-25T12:50:41;100635.69;;;5.34;84.02
79366;BME280;68833;53.160;17.920;2024-01-25T12:53:09;100635.88;;;5.35;83.43
79366;BME280;68833;53.160;17.920;2024-01-25T12:55:37;100639.86;;;5.33;84.04
79366;BME280;68833;53.160;17.920;2024-01-25T12:58:04;100640.04;;;5.32;83.28
79366;BME280;68833;53.160;17.920;2024-01-25T13:00:30;100644.73;;;5.32;83.70
79366;BME280;68833;53.160;17.920;2024-01-25T13:02:56;100652.43;;;5.35;83.65
79366;BME280;68833;53.160;17.920;2024-01-25T13:05:23;100648.60;;;5.35;83.35
79366;BME280;68833;53.160;17.920;2024-01-25T13:07:50;100652.74;;;5.33;83.76
79366;BME280;68833;53.160;17.920;2024-01-25T13:10:16;100656.77;;;5.34;83.43
79366;BME280;68833;53.160;17.920;2024-01-25T13:12:43;100657.61;;;5.33;83.60
79366;BME280;68833;53.160;17.920;2024-01-25T13:15:09;100658.84;;;5.33;83.19